Hualapai, Arizona
Current Conditions -  °F | °C
As of 1:54 PM on Tuesday 25 Nov 2014 (Local Time) from KGCN Reporting Station
Clear Clear  
Wind Chill: 10°   Ceiling: Unl
Heat Index: 10°   Visibility: 10mi
Dew Point: -17°   Wind: 8mph
Humidity: 13%   Direction: 270°W
Pressure: 30.41"   Gusts: NA
Location:  35.9°N, 113.11°W
Report Text: KGCN 252054Z 27007KT 10SM CLR 10/M17 A3041 RMK AO2 SLP306 T01001172 56019
Loading
Personal Weather Stations






























Interactive Weather Map New forecast layout! Learn more

10-Day Weather Forecast

Advertisements
Track Severe Weather on mobile